UPSVAC Airport Information Service

Shanghai Pudong International Airport (ZHUB)

ICAO: ZSPD Country: China
Latitude: 31.1434 Longitude: 121.805
Latest Arrival : UPS1074 (PANC-ZSPD) Latest Departure : UPS1249 (ZSPD-RKSI)


WX CaptureLIVE
Data provided by noaa.gov | Fetched at 10:55:39

METAR : ZSPD 011030Z 34009MPS 9999 -RA BKN011 OVC033 07/06 Q1020 NOSIG

TAF : ZSPD 010323Z 0106/0206 33006MPS 3500 -RA BR BKN007 OVC040 TX16/0106Z TN04/0121Z BECMG 0108/0109 35008G16MPS BECMG 0116/0118 BR BKN011 OVC040


Runway Data for ZSPD
Data provided by openaviationdata.com

Runway ID Mag Var Hdg Length Elevation Surface ILS Freq ILS Id ILS Slope
16 -5 167° 12467 ft 10 ft Concrete -- -- --
17 -5 167° 13150 ft 10 ft Concrete 110.7 IPD 3
34 -5 347° 12467 ft 10 ft Concrete -- -- --
35 -5 347° 13150 ft 10 ft Concrete 111.9 INN 3

Shanghai Pudong International Airport (ZHUB), China
Use only for reference purposes



Not for navigational purposes.